Buoy 41560

sailwx.info

Track history (hours):
 
Tides and Currents Weather Stations Pressure Air Temp Water Temp Dewpoint Dewpoint Depression Visibility Wind Speed Wind Dir Waves Ship Positions

Drifting buoy 41560

Last reported at 2014-Nov-29 05:00 UTC. Time now 2014-Nov-29 06:13 UTC.
Position N 34°49' W 018°59'.

Barometer 1004.7 mb

Date/timePositionNaut miles runAvg speedWind from/ knotsBaromVisibWave heightAir tempDewpointWater temp
2014-Nov-29 05:00N 34°49' W 018°59'0 0.5 1004.7
2014-Nov-29 04:00N 34°49' W 019°00'0 0.0 1004.1
2014-Nov-29 03:00N 34°49' W 019°00'0 0.0 1003.0
2014-Nov-29 02:00N 34°49' W 019°00'3 0.9 1001.9
2014-Nov-28 23:00N 34°51' W 018°58'1 1.3 1000.2
2014-Nov-28 22:00N 34°52' W 018°58'1 0.8 999.5
2014-Nov-28 21:00N 34°53' W 018°58'1 1.2 998.7
2014-Nov-28 20:00N 34°54' W 018°58'2 1.6 998.4
2014-Nov-28 19:00N 34°55' W 018°59'2 2.1 997.9
2014-Nov-28 18:00N 34°57' W 019°01'1 0.6 997.2
2014-Nov-28 17:00N 34°58' W 019°01'6 6.1 996.8
2014-Nov-28 16:00N 35°02' W 019°06'0 0.0 996.4
2014-Nov-28 14:00N 35°02' W 019°06'0 0.0 996.1
2014-Nov-28 13:00N 35°02' W 019°06'0 0.0 996.5
2014-Nov-28 12:00N 35°02' W 019°06'0 0.5 996.7
2014-Nov-28 11:00N 35°02' W 019°07'1 1.2 996.8
2014-Nov-28 10:00N 35°02' W 019°08'3 1.0 996.5
2014-Nov-28 07:00N 35°03' W 019°11'1 0.6 996.0
2014-Nov-28 06:00N 35°04' W 019°11'3 3.0 996.0
2014-Nov-28 05:00N 35°04' W 019°15'0 0.0 996.3
2014-Nov-28 04:00N 35°04' W 019°15'1 1.0 996.8
2014-Nov-28 03:00N 35°04' W 019°16'3 0.8 997.4
2014-Nov-27 23:00N 35°07' W 019°18'2 1.9 998.2
2014-Nov-27 22:00N 35°09' W 019°19'1 0.6 998.5
2014-Nov-27 20:00N 35°10' W 019°17'2 1.9 998.0
2014-Nov-27 19:00N 35°11' W 019°19'2 1.6 998.1
2014-Nov-27 18:00N 35°11' W 019°21'1 1.1 997.5
2014-Nov-27 17:00N 35°12' W 019°22'2 2.1 998.0
2014-Nov-27 16:00N 35°13' W 019°25'2 2.5 999.4
2014-Nov-27 15:00N 35°13' W 019°28'0 0.0 1000.8
2014-Nov-27 14:00N 35°13' W 019°28'1 1.1 1002.7
2014-Nov-27 13:00N 35°13' W 019°29'1 0.6 1004.4
2014-Nov-27 12:00N 35°13' W 019°29'0 0.4 1006.5
2014-Nov-27 11:00N 35°12' W 019°29'2 1.5 1007.9
2014-Nov-27 10:00N 35°13' W 019°31'2 0.8 1009.4
2014-Nov-27 08:00N 35°14' W 019°32'1 0.6 1010.4
2014-Nov-27 07:00N 35°14' W 019°32'0 0.5 1011.9
2014-Nov-27 06:00N 35°14' W 019°33'1 1.3 1012.9
2014-Nov-27 05:00N 35°16' W 019°34'4 2.0 1013.9
2014-Nov-27 03:00N 35°16' W 019°38'0 0.1 1015.3
2014-Nov-27 02:00N 35°16' W 019°38'0 0.0 1016.5
2014-Nov-27 00:00N 35°16' W 019°38'1 0.6 1018.6
2014-Nov-26 23:00N 35°17' W 019°38'0 0.5 1018.6
2014-Nov-26 22:00N 35°17' W 019°39'1 0.8 1018.9
2014-Nov-26 21:00N 35°17' W 019°38'1 0.8 1019.2
2014-Nov-26 20:00N 35°18' W 019°39'2 2.0 1019.1
2014-Nov-26 19:00N 35°19' W 019°41'1 0.6 1018.8
2014-Nov-26 17:00N 35°20' W 019°41'0 0.0 1019.1
2014-Nov-26 16:00N 35°20' W 019°41'0 0.0 1018.8
2014-Nov-26 15:00N 35°20' W 019°41'1 1.3 1018.8
2014-Nov-26 14:00N 35°21' W 019°42'0 0.3 1019.5
2014-Nov-26 13:00N 35°21' W 019°42'3 3.3 1020.0
2014-Nov-26 12:00N 35°24' W 019°44'0 0.0 1020.9
2014-Nov-26 11:00N 35°24' W 019°44'2 1.9 1020.9
2014-Nov-26 10:00N 35°26' W 019°45'1 0.5 1020.8
2014-Nov-26 07:00N 35°26' W 019°46'1 0.8 1020.0
2014-Nov-26 06:00N 35°27' W 019°47'0 0.3 1020.0
2014-Nov-26 05:00N 35°27' W 019°47'3 1.7 1019.8
2014-Nov-26 03:00N 35°30' W 019°49'1 0.2 1020.4
2014-Nov-25 22:00N 35°30' W 019°50'1 1.1 1024.5
2014-Nov-25 21:00N 35°31' W 019°49'2 0.8 1024.5
2014-Nov-25 19:00N 35°32' W 019°50'1 0.6 1023.8
2014-Nov-25 18:00N 35°31' W 019°50'1 0.5 1023.9
2014-Nov-25 17:00N 35°32' W 019°51'0 0.1 1024.0
2014-Nov-25 15:00N 35°32' W 019°51'1 0.5 1024.1
2014-Nov-25 13:00N 35°32' W 019°52'0 0.0 1025.6
2014-Nov-25 12:00N 35°32' W 019°52'0 0.0 1026.5
2014-Nov-25 11:00N 35°32' W 019°52'1 0.6 1026.6
2014-Nov-25 10:00N 35°33' W 019°51'0 0.3 1026.3
2014-Nov-25 09:00N 35°33' W 019°51'0 0.0 1025.9
2014-Nov-25 08:00N 35°33' W 019°51'1 1.0 1025.6
2014-Nov-25 07:00N 35°33' W 019°50'1 0.4 1024.8
2014-Nov-25 05:00N 35°33' W 019°51'0 0.2 1024.7
2014-Nov-25 04:00N 35°34' W 019°50'0 0.5 1025.1
2014-Nov-25 03:00N 35°34' W 019°51'0 0.5 1025.4
2014-Nov-25 02:00N 35°34' W 019°52'0 0.2 1025.9
2014-Nov-25 01:00N 35°34' W 019°52'0 0.2 1026.1
2014-Nov-24 23:00N 35°34' W 019°52'0 0.0 1026.8
2014-Nov-24 22:00N 35°34' W 019°52'1 0.6 1027.1
2014-Nov-24 21:00N 35°34' W 019°52'0 0.5 1027.1
2014-Nov-24 20:00N 35°34' W 019°52'0 0.0 1027.1
2014-Nov-24 19:00N 35°34' W 019°52'1 1.1 1027.0
2014-Nov-24 18:00N 35°35' W 019°50'1 1.5 1026.6
2014-Nov-24 17:00N 35°35' W 019°52'0 0.0 1026.3
2014-Nov-24 16:00N 35°35' W 019°52'0 0.5 1026.2
2014-Nov-24 15:00N 35°35' W 019°52'1 1.5 1026.3
2014-Nov-24 14:00N 35°35' W 019°53'0 0.0 1026.8
2014-Nov-24 13:00N 35°35' W 019°53'0 0.0 1027.2
2014-Nov-24 12:00N 35°35' W 019°53'0 0.0 1027.9
2014-Nov-24 11:00N 35°35' W 019°53'1 0.6 1028.2
2014-Nov-24 10:00N 35°35' W 019°53'1 0.6 1028.0
2014-Nov-24 09:00N 35°35' W 019°53'0 0.0 1027.4
2014-Nov-24 08:00N 35°35' W 019°53'1 0.8 1027.3
2014-Nov-24 07:00N 35°35' W 019°53'0 0.5 1026.6
2014-Nov-24 06:00N 35°35' W 019°52'0 0.2 1026.1
2014-Nov-24 05:00N 35°36' W 019°52'1 1.4 1025.9
2014-Nov-24 04:00N 35°37' W 019°53'1 0.8 1025.7
2014-Nov-24 03:00N 35°37' W 019°53'0 0.0 1025.7
2014-Nov-24 02:00N 35°37' W 019°53'1 0.9 1025.7
2014-Nov-24 01:00N 35°37' W 019°54'1 0.3 1025.9
2014-Nov-23 23:00N 35°37' W 019°53'1 0.6 1026.2
2014-Nov-23 22:00N 35°37' W 019°53'1 0.6 1026.0
2014-Nov-23 21:00N 35°37' W 019°53'1 1.1 1025.8
2014-Nov-23 20:00N 35°37' W 019°52'1 0.6 1025.6
2014-Nov-23 19:00N 35°36' W 019°52'2 1.5 1025.3
2014-Nov-23 18:00N 35°37' W 019°51'0 0.5 1024.9
2014-Nov-23 17:00N 35°37' W 019°52'1 0.8 1024.5
2014-Nov-23 16:00N 35°38' W 019°51'1 0.8 1024.4
2014-Nov-23 15:00N 35°38' W 019°50'0 0.0 1024.4
2014-Nov-23 14:00N 35°38' W 019°50'1 1.3 1024.5
2014-Nov-23 13:00N 35°40' W 019°50'0 0.0 1024.7
2014-Nov-23 12:00N 35°40' W 019°50'1 0.8 1025.2
2014-Nov-23 11:00N 35°40' W 019°49'0 0.0 1025.0
2014-Nov-23 10:00N 35°40' W 019°49'1 0.4 1024.7
2014-Nov-23 08:00N 35°41' W 019°49'3 2.6 1023.5
2014-Nov-23 07:00N 35°43' W 019°47'0 0.5 1022.7
2014-Nov-23 06:00N 35°43' W 019°48'0 0.0 1022.4
2014-Nov-23 05:00N 35°43' W 019°48'0 0.0 1022.1
2014-Nov-23 04:00N 35°43' W 019°48'1 0.4 1022.2
2014-Nov-23 02:00N 35°44' W 019°49'2 0.8 1022.0
2014-Nov-23 00:00N 35°44' W 019°47'1 0.8 1022.3
2014-Nov-22 23:00N 35°44' W 019°46'1 0.8 1021.8
2014-Nov-22 22:00N 35°44' W 019°47'0 0.0 1021.0
2014-Nov-22 21:00N 35°44' W 019°47'2 1.6 1020.1
2014-Nov-22 20:00N 35°45' W 019°45'2 0.7 1020.0
2014-Nov-22 17:00N 35°46' W 019°43'0 0.5 1018.8
2014-Nov-22 16:00N 35°46' W 019°43'1 1.1 1018.4
2014-Nov-22 15:00N 35°47' W 019°41'0 0.0 1017.8
2014-Nov-22 14:00N 35°47' W 019°41'2 1.2 1017.8
2014-Nov-22 12:00N 35°49' W 019°41'1 0.8 1018.8
2014-Nov-22 11:00N 35°50' W 019°41'2 1.9 1018.5
2014-Nov-22 10:00N 35°52' W 019°42'0 0.3 1017.8
2014-Nov-22 09:00N 35°51' W 019°42'0 0.3 1017.1
2014-Nov-22 08:00N 35°52' W 019°42'0 0.5 1016.7
2014-Nov-22 07:00N 35°52' W 019°43'1 0.6 1015.8
2014-Nov-22 06:00N 35°52' W 019°43'1 0.8 1015.6
2014-Nov-22 05:00N 35°53' W 019°43'0 0.5 1015.4
2014-Nov-22 04:00N 35°53' W 019°44'1 0.3 1015.5
2014-Nov-22 02:00N 35°53' W 019°44'1 0.2 1015.2
2014-Nov-21 23:00N 35°53' W 019°45'0 0.0 1015.5
2014-Nov-21 21:00N 35°53' W 019°45'1 1.3 1014.9
2014-Nov-21 20:00N 35°55' W 019°46'1 0.3 1014.1
2014-Nov-21 18:00N 35°54' W 019°46'1 0.8 1013.3
2014-Nov-21 17:00N 35°55' W 019°46'1 0.6 1013.0
2014-Nov-21 16:00N 35°55' W 019°46'1 0.4 1012.6
2014-Nov-21 14:00N 35°56' W 019°47'3 0.9 1012.6
2014-Nov-21 11:00N 35°57' W 019°50'0 0.0 1013.6
2014-Nov-21 10:00N 35°57' W 019°50'2 1.9 1013.0
2014-Nov-21 09:00N 35°57' W 019°52'0 0.0 1011.8
2014-Nov-21 08:00N 35°57' W 019°52'0 0.0 1011.8
2014-Nov-21 06:00N 35°57' W 019°52'1 0.8 1009.5
2014-Nov-21 05:00N 35°56' W 019°53'1 1.0 1010.0
2014-Nov-21 04:00N 35°56' W 019°52'1 1.1 1009.7
2014-Nov-21 03:00N 35°57' W 019°53'0 0.5 1009.5
2014-Nov-21 02:00N 35°57' W 019°53'1 0.2 1008.7
2014-Nov-20 22:00N 35°57' W 019°55'2 1.0 1007.0
2014-Nov-20 20:00N 35°59' W 019°56'1 0.8 1006.6
2014-Nov-20 19:00N 35°58' W 019°56'1 0.8 1005.4
2014-Nov-20 18:00N 35°59' W 019°56'1 0.7 1004.7
2014-Nov-20 17:00N 35°59' W 019°57'0 0.3 1004.1
2014-Nov-20 16:00N 35°59' W 019°56'2 1.2 1003.5
2014-Nov-20 14:00N 36°01' W 019°58'0 0.2 1004.1
2014-Nov-20 12:00N 36°01' W 019°59'1 1.0 1004.8
2014-Nov-20 11:00N 36°01' W 020°00'1 0.8 1004.9
2014-Nov-20 10:00N 36°02' W 019°59'0 0.0 1005.1
2014-Nov-20 09:00N 36°02' W 019°59'1 1.1 1004.8
2014-Nov-20 08:00N 36°02' W 020°01'1 0.8 1004.1
2014-Nov-20 07:00N 36°03' W 020°01'1 0.6 1003.8
2014-Nov-20 06:00N 36°04' W 020°01'0 0.0 1003.6
2014-Nov-20 05:00N 36°04' W 020°01'1 1.3 1004.0
2014-Nov-20 04:00N 36°05' W 020°02'0 0.0 1004.1
2014-Nov-20 03:00N 36°05' W 020°02'2 1.9 1004.2
2014-Nov-20 02:00N 36°07' W 020°02'2 0.6 1004.5
2014-Nov-19 23:00N 36°08' W 020°02'0 0.2 1004.9
2014-Nov-19 22:00N 36°08' W 020°02'1 0.8 1004.9
2014-Nov-19 21:00N 36°09' W 020°02'1 0.8 1004.8
2014-Nov-19 20:00N 36°10' W 020°02'0 0.5 1004.7
2014-Nov-19 19:00N 36°10' W 020°02'2 1.5 1004.3
2014-Nov-19 18:00N 36°11' W 020°01'1 1.0 1004.0
2014-Nov-19 17:00N 36°11' W 020°02'1 1.3 1003.6
2014-Nov-19 16:00N 36°12' W 020°01'2 1.0 1003.6
2014-Nov-19 14:00N 36°14' W 020°00'1 0.6 1004.0
2014-Nov-19 12:00N 36°15' W 020°00'0 0.5 1005.3
2014-Nov-19 11:00N 36°15' W 020°01'2 1.6 1005.4
2014-Nov-19 10:00N 36°16' W 019°59'1 1.3 1005.4
2014-Nov-19 09:00N 36°17' W 019°59'1 0.4 1005.1
2014-Nov-19 07:00N 36°17' W 019°59'1 0.6 1004.7
2014-Nov-19 06:00N 36°18' W 019°59'0 0.5 1004.9
2014-Nov-19 05:00N 36°18' W 019°58'   1005.1
Track history (hours):
 
Tides and Currents Weather Stations Pressure Air Temp Water Temp Dewpoint Dewpoint Depression Visibility Wind Speed Wind Dir Waves Ship Positions

Drifting buoy 41560

Last reported at 2014-Nov-29 05:00 UTC. Time now 2014-Nov-29 06:13 UTC.
Position N 34°49' W 018°59'.

Barometer 1004.7 mb

Date/timePositionNaut miles runAvg speedWind from/ knotsBaromVisibWave heightAir tempDewpointWater temp
2014-Nov-29 05:00N 34°49' W 018°59'0 0.5 1004.7
2014-Nov-29 04:00N 34°49' W 019°00'0 0.0 1004.1
2014-Nov-29 03:00N 34°49' W 019°00'0 0.0 1003.0
2014-Nov-29 02:00N 34°49' W 019°00'3 0.9 1001.9
2014-Nov-28 23:00N 34°51' W 018°58'1 1.3 1000.2
2014-Nov-28 22:00N 34°52' W 018°58'1 0.8 999.5
2014-Nov-28 21:00N 34°53' W 018°58'1 1.2 998.7
2014-Nov-28 20:00N 34°54' W 018°58'2 1.6 998.4
2014-Nov-28 19:00N 34°55' W 018°59'2 2.1 997.9
2014-Nov-28 18:00N 34°57' W 019°01'1 0.6 997.2
2014-Nov-28 17:00N 34°58' W 019°01'6 6.1 996.8
2014-Nov-28 16:00N 35°02' W 019°06'0 0.0 996.4
2014-Nov-28 14:00N 35°02' W 019°06'0 0.0 996.1
2014-Nov-28 13:00N 35°02' W 019°06'0 0.0 996.5
2014-Nov-28 12:00N 35°02' W 019°06'0 0.5 996.7
2014-Nov-28 11:00N 35°02' W 019°07'1 1.2 996.8
2014-Nov-28 10:00N 35°02' W 019°08'3 1.0 996.5
2014-Nov-28 07:00N 35°03' W 019°11'1 0.6 996.0
2014-Nov-28 06:00N 35°04' W 019°11'3 3.0 996.0
2014-Nov-28 05:00N 35°04' W 019°15'0 0.0 996.3
2014-Nov-28 04:00N 35°04' W 019°15'1 1.0 996.8
2014-Nov-28 03:00N 35°04' W 019°16'3 0.8 997.4
2014-Nov-27 23:00N 35°07' W 019°18'2 1.9 998.2
2014-Nov-27 22:00N 35°09' W 019°19'1 0.6 998.5
2014-Nov-27 20:00N 35°10' W 019°17'2 1.9 998.0
2014-Nov-27 19:00N 35°11' W 019°19'2 1.6 998.1
2014-Nov-27 18:00N 35°11' W 019°21'1 1.1 997.5
2014-Nov-27 17:00N 35°12' W 019°22'2 2.1 998.0
2014-Nov-27 16:00N 35°13' W 019°25'2 2.5 999.4
2014-Nov-27 15:00N 35°13' W 019°28'0 0.0 1000.8
2014-Nov-27 14:00N 35°13' W 019°28'1 1.1 1002.7
2014-Nov-27 13:00N 35°13' W 019°29'1 0.6 1004.4
2014-Nov-27 12:00N 35°13' W 019°29'0 0.4 1006.5
2014-Nov-27 11:00N 35°12' W 019°29'2 1.5 1007.9
2014-Nov-27 10:00N 35°13' W 019°31'2 0.8 1009.4
2014-Nov-27 08:00N 35°14' W 019°32'1 0.6 1010.4
2014-Nov-27 07:00N 35°14' W 019°32'0 0.5 1011.9
2014-Nov-27 06:00N 35°14' W 019°33'1 1.3 1012.9
2014-Nov-27 05:00N 35°16' W 019°34'4 2.0 1013.9
2014-Nov-27 03:00N 35°16' W 019°38'0 0.1 1015.3
2014-Nov-27 02:00N 35°16' W 019°38'0 0.0 1016.5
2014-Nov-27 00:00N 35°16' W 019°38'1 0.6 1018.6
2014-Nov-26 23:00N 35°17' W 019°38'0 0.5 1018.6
2014-Nov-26 22:00N 35°17' W 019°39'1 0.8 1018.9
2014-Nov-26 21:00N 35°17' W 019°38'1 0.8 1019.2
2014-Nov-26 20:00N 35°18' W 019°39'2 2.0 1019.1
2014-Nov-26 19:00N 35°19' W 019°41'1 0.6 1018.8
2014-Nov-26 17:00N 35°20' W 019°41'0 0.0 1019.1
2014-Nov-26 16:00N 35°20' W 019°41'0 0.0 1018.8
2014-Nov-26 15:00N 35°20' W 019°41'1 1.3 1018.8
2014-Nov-26 14:00N 35°21' W 019°42'0 0.3 1019.5
2014-Nov-26 13:00N 35°21' W 019°42'3 3.3 1020.0
2014-Nov-26 12:00N 35°24' W 019°44'0 0.0 1020.9
2014-Nov-26 11:00N 35°24' W 019°44'2 1.9 1020.9
2014-Nov-26 10:00N 35°26' W 019°45'1 0.5 1020.8
2014-Nov-26 07:00N 35°26' W 019°46'1 0.8 1020.0
2014-Nov-26 06:00N 35°27' W 019°47'0 0.3 1020.0
2014-Nov-26 05:00N 35°27' W 019°47'3 1.7 1019.8
2014-Nov-26 03:00N 35°30' W 019°49'1 0.2 1020.4
2014-Nov-25 22:00N 35°30' W 019°50'1 1.1 1024.5
2014-Nov-25 21:00N 35°31' W 019°49'2 0.8 1024.5
2014-Nov-25 19:00N 35°32' W 019°50'1 0.6 1023.8
2014-Nov-25 18:00N 35°31' W 019°50'1 0.5 1023.9
2014-Nov-25 17:00N 35°32' W 019°51'0 0.1 1024.0
2014-Nov-25 15:00N 35°32' W 019°51'1 0.5 1024.1
2014-Nov-25 13:00N 35°32' W 019°52'0 0.0 1025.6
2014-Nov-25 12:00N 35°32' W 019°52'0 0.0 1026.5
2014-Nov-25 11:00N 35°32' W 019°52'1 0.6 1026.6
2014-Nov-25 10:00N 35°33' W 019°51'0 0.3 1026.3
2014-Nov-25 09:00N 35°33' W 019°51'0 0.0 1025.9
2014-Nov-25 08:00N 35°33' W 019°51'1 1.0 1025.6
2014-Nov-25 07:00N 35°33' W 019°50'1 0.4 1024.8
2014-Nov-25 05:00N 35°33' W 019°51'0 0.2 1024.7
2014-Nov-25 04:00N 35°34' W 019°50'0 0.5 1025.1
2014-Nov-25 03:00N 35°34' W 019°51'0 0.5 1025.4
2014-Nov-25 02:00N 35°34' W 019°52'0 0.2 1025.9
2014-Nov-25 01:00N 35°34' W 019°52'0 0.2 1026.1
2014-Nov-24 23:00N 35°34' W 019°52'0 0.0 1026.8
2014-Nov-24 22:00N 35°34' W 019°52'1 0.6 1027.1
2014-Nov-24 21:00N 35°34' W 019°52'0 0.5 1027.1
2014-Nov-24 20:00N 35°34' W 019°52'0 0.0 1027.1
2014-Nov-24 19:00N 35°34' W 019°52'1 1.1 1027.0
2014-Nov-24 18:00N 35°35' W 019°50'1 1.5 1026.6
2014-Nov-24 17:00N 35°35' W 019°52'0 0.0 1026.3
2014-Nov-24 16:00N 35°35' W 019°52'0 0.5 1026.2
2014-Nov-24 15:00N 35°35' W 019°52'1 1.5 1026.3
2014-Nov-24 14:00N 35°35' W 019°53'0 0.0 1026.8
2014-Nov-24 13:00N 35°35' W 019°53'0 0.0 1027.2
2014-Nov-24 12:00N 35°35' W 019°53'0 0.0 1027.9
2014-Nov-24 11:00N 35°35' W 019°53'1 0.6 1028.2
2014-Nov-24 10:00N 35°35' W 019°53'1 0.6 1028.0
2014-Nov-24 09:00N 35°35' W 019°53'0 0.0 1027.4
2014-Nov-24 08:00N 35°35' W 019°53'1 0.8 1027.3
2014-Nov-24 07:00N 35°35' W 019°53'0 0.5 1026.6
2014-Nov-24 06:00N 35°35' W 019°52'0 0.2 1026.1
2014-Nov-24 05:00N 35°36' W 019°52'1 1.4 1025.9
2014-Nov-24 04:00N 35°37' W 019°53'1 0.8 1025.7
2014-Nov-24 03:00N 35°37' W 019°53'0 0.0 1025.7
2014-Nov-24 02:00N 35°37' W 019°53'1 0.9 1025.7
2014-Nov-24 01:00N 35°37' W 019°54'1 0.3 1025.9
2014-Nov-23 23:00N 35°37' W 019°53'1 0.6 1026.2
2014-Nov-23 22:00N 35°37' W 019°53'1 0.6 1026.0
2014-Nov-23 21:00N 35°37' W 019°53'1 1.1 1025.8
2014-Nov-23 20:00N 35°37' W 019°52'1 0.6 1025.6
2014-Nov-23 19:00N 35°36' W 019°52'2 1.5 1025.3
2014-Nov-23 18:00N 35°37' W 019°51'0 0.5 1024.9
2014-Nov-23 17:00N 35°37' W 019°52'1 0.8 1024.5
2014-Nov-23 16:00N 35°38' W 019°51'1 0.8 1024.4
2014-Nov-23 15:00N 35°38' W 019°50'0 0.0 1024.4
2014-Nov-23 14:00N 35°38' W 019°50'1 1.3 1024.5
2014-Nov-23 13:00N 35°40' W 019°50'0 0.0 1024.7
2014-Nov-23 12:00N 35°40' W 019°50'1 0.8 1025.2
2014-Nov-23 11:00N 35°40' W 019°49'0 0.0 1025.0
2014-Nov-23 10:00N 35°40' W 019°49'1 0.4 1024.7
2014-Nov-23 08:00N 35°41' W 019°49'3 2.6 1023.5
2014-Nov-23 07:00N 35°43' W 019°47'0 0.5 1022.7
2014-Nov-23 06:00N 35°43' W 019°48'0 0.0 1022.4
2014-Nov-23 05:00N 35°43' W 019°48'0 0.0 1022.1
2014-Nov-23 04:00N 35°43' W 019°48'1 0.4 1022.2
2014-Nov-23 02:00N 35°44' W 019°49'2 0.8 1022.0
2014-Nov-23 00:00N 35°44' W 019°47'1 0.8 1022.3
2014-Nov-22 23:00N 35°44' W 019°46'1 0.8 1021.8
2014-Nov-22 22:00N 35°44' W 019°47'0 0.0 1021.0
2014-Nov-22 21:00N 35°44' W 019°47'2 1.6 1020.1
2014-Nov-22 20:00N 35°45' W 019°45'2 0.7 1020.0
2014-Nov-22 17:00N 35°46' W 019°43'0 0.5 1018.8
2014-Nov-22 16:00N 35°46' W 019°43'1 1.1 1018.4
2014-Nov-22 15:00N 35°47' W 019°41'0 0.0 1017.8
2014-Nov-22 14:00N 35°47' W 019°41'2 1.2 1017.8
2014-Nov-22 12:00N 35°49' W 019°41'1 0.8 1018.8
2014-Nov-22 11:00N 35°50' W 019°41'2 1.9 1018.5
2014-Nov-22 10:00N 35°52' W 019°42'0 0.3 1017.8
2014-Nov-22 09:00N 35°51' W 019°42'0 0.3 1017.1
2014-Nov-22 08:00N 35°52' W 019°42'0 0.5 1016.7
2014-Nov-22 07:00N 35°52' W 019°43'1 0.6 1015.8
2014-Nov-22 06:00N 35°52' W 019°43'1 0.8 1015.6
2014-Nov-22 05:00N 35°53' W 019°43'0 0.5 1015.4
2014-Nov-22 04:00N 35°53' W 019°44'1 0.3 1015.5
2014-Nov-22 02:00N 35°53' W 019°44'1 0.2 1015.2
2014-Nov-21 23:00N 35°53' W 019°45'0 0.0 1015.5
2014-Nov-21 21:00N 35°53' W 019°45'1 1.3 1014.9
2014-Nov-21 20:00N 35°55' W 019°46'1 0.3 1014.1
2014-Nov-21 18:00N 35°54' W 019°46'1 0.8 1013.3
2014-Nov-21 17:00N 35°55' W 019°46'1 0.6 1013.0
2014-Nov-21 16:00N 35°55' W 019°46'1 0.4 1012.6
2014-Nov-21 14:00N 35°56' W 019°47'3 0.9 1012.6
2014-Nov-21 11:00N 35°57' W 019°50'0 0.0 1013.6
2014-Nov-21 10:00N 35°57' W 019°50'2 1.9 1013.0
2014-Nov-21 09:00N 35°57' W 019°52'0 0.0 1011.8
2014-Nov-21 08:00N 35°57' W 019°52'0 0.0 1011.8
2014-Nov-21 06:00N 35°57' W 019°52'1 0.8 1009.5
2014-Nov-21 05:00N 35°56' W 019°53'1 1.0 1010.0
2014-Nov-21 04:00N 35°56' W 019°52'1 1.1 1009.7
2014-Nov-21 03:00N 35°57' W 019°53'0 0.5 1009.5
2014-Nov-21 02:00N 35°57' W 019°53'1 0.2 1008.7
2014-Nov-20 22:00N 35°57' W 019°55'2 1.0 1007.0
2014-Nov-20 20:00N 35°59' W 019°56'1 0.8 1006.6
2014-Nov-20 19:00N 35°58' W 019°56'1 0.8 1005.4
2014-Nov-20 18:00N 35°59' W 019°56'1 0.7 1004.7
2014-Nov-20 17:00N 35°59' W 019°57'0 0.3 1004.1
2014-Nov-20 16:00N 35°59' W 019°56'2 1.2 1003.5
2014-Nov-20 14:00N 36°01' W 019°58'0 0.2 1004.1
2014-Nov-20 12:00N 36°01' W 019°59'1 1.0 1004.8
2014-Nov-20 11:00N 36°01' W 020°00'1 0.8 1004.9
2014-Nov-20 10:00N 36°02' W 019°59'0 0.0 1005.1
2014-Nov-20 09:00N 36°02' W 019°59'1 1.1 1004.8
2014-Nov-20 08:00N 36°02' W 020°01'1 0.8 1004.1
2014-Nov-20 07:00N 36°03' W 020°01'1 0.6 1003.8
2014-Nov-20 06:00N 36°04' W 020°01'0 0.0 1003.6
2014-Nov-20 05:00N 36°04' W 020°01'1 1.3 1004.0
2014-Nov-20 04:00N 36°05' W 020°02'0 0.0 1004.1
2014-Nov-20 03:00N 36°05' W 020°02'2 1.9 1004.2
2014-Nov-20 02:00N 36°07' W 020°02'2 0.6 1004.5
2014-Nov-19 23:00N 36°08' W 020°02'0 0.2 1004.9
2014-Nov-19 22:00N 36°08' W 020°02'1 0.8 1004.9
2014-Nov-19 21:00N 36°09' W 020°02'1 0.8 1004.8
2014-Nov-19 20:00N 36°10' W 020°02'0 0.5 1004.7
2014-Nov-19 19:00N 36°10' W 020°02'2 1.5 1004.3
2014-Nov-19 18:00N 36°11' W 020°01'1 1.0 1004.0
2014-Nov-19 17:00N 36°11' W 020°02'1 1.3 1003.6
2014-Nov-19 16:00N 36°12' W 020°01'2 1.0 1003.6
2014-Nov-19 14:00N 36°14' W 020°00'1 0.6 1004.0
2014-Nov-19 12:00N 36°15' W 020°00'0 0.5 1005.3
2014-Nov-19 11:00N 36°15' W 020°01'2 1.6 1005.4
2014-Nov-19 10:00N 36°16' W 019°59'1 1.3 1005.4
2014-Nov-19 09:00N 36°17' W 019°59'1 0.4 1005.1
2014-Nov-19 07:00N 36°17' W 019°59'1 0.6 1004.7
2014-Nov-19 06:00N 36°18' W 019°59'0 0.5 1004.9
2014-Nov-19 05:00N 36°18' W 019°58'   1005.1

Dump ship's entire track history